Etusivu
METAR-TAF:

METAR-TAF

Lentoasemat :

Kwethluk, Alaska, Yhdysvallat

Leveyspiiri: 60-47-25N, Pituuspiiri: 161-26-37W, korkeus merenpinnasta: 9 m

Tämänhetkinen sää

Tämä raportti tehtiin 24 minuuttia sitten, kello 19.56 UTC
Tuuli 8 kn lounaasta
Lämpötila 0°C
Kosteus 74%
Ilmanpaine 1028 hPa
Näkyvyys: 16.1 km
Muutamia pilviä 1800 ft:n korkeudessa

METAR: PFKW 141956Z AUTO 23008KT 10SM FEW018 00/M04 A3035 RMK AO2 SLP277 T00001039 FZRANO

Aika: 12:20 (20:20 UTC)


TAF: puuttuu

Säähavainnot ja -ennusteet yli 4000 lentoasemalta (METAR- ja TAF-raportit).

Käytössä olevat sääasemat on merkitty karttaan keltaisilla ja punaisilla pisteillä.

Aseta hiiri pisteen päälle nähdäksesi sääaseman nimen.

Klikkaa sitten nähdäksesi säähavainnot ja -ennusteet.

Kartan vaihtaminen: klikkaa mustalla rastilla varustettuja vihreitä pisteitä, niin voit zoomata sisään; viivalla varustettua vihreää pistettä, niin voit zoomata ulos tai vihreitä nuolia, niin pääset viereisille kartoille.


METAR-TAF: